Time;durP1;ratioP1;P1;durP2;ratioP2;P2;SDS_P1;SDS_P2;PMS_P1;PMS_P2;Temp;Humidity;BMP_temperature;BMP_pressure;BME280_temperature;BME280_humidity;BME280_pressure;Samples;Min_cycle;Max_cycle;Signal;HPM_P1;HPM_P2
2022/01/08 00:00:25;;;;;;;0.90;0.90;;;1.90;99.90;;;;;;5042146;28;20203;-91
2022/01/08 00:02:54;;;;;;;4.27;1.30;;;1.90;99.90;;;;;;5028481;28;20454;-90
2022/01/08 00:05:20;;;;;;;1.30;1.20;;;1.90;99.90;;;;;;5046706;28;20430;-91
2022/01/08 00:07:46;;;;;;;3.93;2.53;;;2.00;99.90;;;;;;5038570;28;20448;-90
2022/01/08 00:10:12;;;;;;;1.27;1.17;;;2.00;99.90;;;;;;5033823;28;20207;-90
2022/01/08 00:12:38;;;;;;;0.80;0.80;;;2.00;99.90;;;;;;5033545;28;20670;-90
2022/01/08 00:15:06;;;;;;;0.80;0.73;;;2.00;99.90;;;;;;5032706;28;20430;-90
2022/01/08 00:17:32;;;;;;;0.70;0.70;;;2.00;99.90;;;;;;5032384;28;20530;-90
2022/01/08 00:19:57;;;;;;;0.90;0.90;;;2.00;99.90;;;;;;5034046;28;20525;-89
2022/01/08 00:22:23;;;;;;;0.80;0.80;;;2.00;99.90;;;;;;5031641;28;20635;-90
2022/01/08 00:24:52;;;;;;;0.80;0.77;;;2.00;99.90;;;;;;5033482;28;20195;-89
2022/01/08 00:27:21;;;;;;;0.80;0.80;;;2.00;99.90;;;;;;5032011;28;20269;-90
2022/01/08 00:29:47;;;;;;;3.27;1.47;;;2.10;99.90;;;;;;5032065;28;20974;-90
2022/01/08 00:32:14;;;;;;;0.80;0.80;;;2.00;99.90;;;;;;5021358;28;20450;-90
2022/01/08 00:34:41;;;;;;;0.80;0.80;;;2.10;99.90;;;;;;5033583;28;20418;-90
2022/01/08 00:37:06;;;;;;;1.47;1.37;;;2.10;99.90;;;;;;5032471;28;20488;-90
2022/01/08 00:39:33;;;;;;;1.00;1.00;;;2.10;99.90;;;;;;5032151;28;20427;-90
2022/01/08 00:41:58;;;;;;;0.80;0.70;;;2.10;99.90;;;;;;5022324;28;20200;-90
2022/01/08 00:44:24;;;;;;;0.80;0.70;;;2.10;99.90;;;;;;5030969;28;20473;-90
2022/01/08 00:46:49;;;;;;;0.70;0.70;;;2.10;99.90;;;;;;5026421;28;20188;-90
2022/01/08 00:49:15;;;;;;;14.17;3.07;;;2.10;99.90;;;;;;5058816;28;20184;-90
2022/01/08 00:51:41;;;;;;;0.73;0.70;;;2.10;99.90;;;;;;5020901;28;20211;-90
2022/01/08 00:54:06;;;;;;;1.10;1.00;;;2.10;99.90;;;;;;5033409;28;20202;-91
2022/01/08 00:56:32;;;;;;;2.80;2.70;;;2.10;99.90;;;;;;5033793;28;20218;-90
2022/01/08 00:58:57;;;;;;;0.80;0.70;;;2.10;99.90;;;;;;5033063;28;20692;-91
2022/01/08 01:01:23;;;;;;;0.80;0.80;;;2.10;99.90;;;;;;5033233;28;20229;-90
2022/01/08 01:03:48;;;;;;;3.47;1.37;;;2.10;99.90;;;;;;5030757;28;20230;-90
2022/01/08 01:06:14;;;;;;;0.83;0.83;;;2.10;99.90;;;;;;5033449;28;20192;-89
2022/01/08 01:08:40;;;;;;;1.00;1.00;;;2.10;99.90;;;;;;5027770;28;20569;-90
2022/01/08 01:11:05;;;;;;;1.47;1.37;;;2.10;99.90;;;;;;5042480;28;20227;-91
2022/01/08 01:13:31;;;;;;;1.37;1.27;;;2.10;99.90;;;;;;5030470;28;20550;-89
2022/01/08 01:15:57;;;;;;;0.80;0.80;;;2.10;99.90;;;;;;5029242;28;20739;-89
2022/01/08 01:18:23;;;;;;;0.73;0.70;;;2.10;99.90;;;;;;5032637;28;20512;-90
2022/01/08 01:20:50;;;;;;;0.93;0.93;;;2.10;99.90;;;;;;5021780;28;20465;-90
2022/01/08 01:23:20;;;;;;;1.80;1.70;;;2.10;99.90;;;;;;5030547;28;20184;-90
2022/01/08 01:25:50;;;;;;;1.00;1.00;;;2.10;99.90;;;;;;5031476;28;20442;-90
2022/01/08 01:47:27;;;;;;;0.80;0.80;;;2.00;99.90;;;;;;5030982;28;21003;-89
2022/01/08 01:49:53;;;;;;;0.87;0.87;;;2.00;99.90;;;;;;5023129;28;20474;-91
2022/01/08 01:52:19;;;;;;;0.80;0.80;;;2.00;99.90;;;;;;5029966;28;20512;-90
2022/01/08 01:54:45;;;;;;;0.80;0.70;;;2.00;99.90;;;;;;5028805;28;20389;-90
2022/01/08 01:57:17;;;;;;;0.80;0.80;;;2.00;99.90;;;;;;5024419;28;20223;-90
2022/01/08 01:59:43;;;;;;;5.03;2.13;;;1.90;99.90;;;;;;5030893;28;20430;-91
2022/01/08 02:02:09;;;;;;;0.90;0.90;;;2.00;99.90;;;;;;5029802;28;20530;-89
2022/01/08 02:04:35;;;;;;;1.20;1.10;;;2.00;99.90;;;;;;5025430;28;20635;-90
2022/01/08 02:07:01;;;;;;;0.90;0.90;;;1.90;99.90;;;;;;5031223;28;20434;-91
2022/01/08 02:09:26;;;;;;;0.80;0.80;;;1.90;99.90;;;;;;5021192;28;20846;-90
2022/01/08 02:12:01;;;;;;;0.90;0.90;;;1.90;99.90;;;;;;5027996;28;20183;-90
2022/01/08 02:14:29;;;;;;;0.80;0.80;;;1.90;99.90;;;;;;5027816;28;20190;-89
2022/01/08 02:16:54;;;;;;;0.80;0.80;;;1.90;99.90;;;;;;5045655;28;20470;-90
2022/01/08 02:19:21;;;;;;;0.80;0.80;;;1.90;99.90;;;;;;5030080;28;20945;-90
2022/01/08 02:21:58;;;;;;;0.90;0.90;;;1.90;99.90;;;;;;5044964;28;20224;-89
2022/01/08 02:24:25;;;;;;;0.80;0.73;;;1.90;99.90;;;;;;5030406;28;20462;-90
2022/01/08 02:26:51;;;;;;;2.13;2.03;;;1.90;99.90;;;;;;5022135;28;20856;-89
2022/01/08 02:29:20;;;;;;;0.80;0.80;;;1.90;99.90;;;;;;5022428;28;20481;-89
2022/01/08 02:32:00;;;;;;;0.80;0.80;;;1.90;99.90;;;;;;5020118;28;20492;-91
2022/01/08 02:34:27;;;;;;;0.80;0.70;;;1.90;99.90;;;;;;5026509;28;20443;-90
2022/01/08 02:36:53;;;;;;;2.30;2.10;;;1.90;99.90;;;;;;5029129;28;20478;-91
2022/01/08 02:39:19;;;;;;;1.37;1.27;;;1.90;99.90;;;;;;5026929;28;20446;-88
2022/01/08 02:41:45;;;;;;;1.87;1.20;;;1.90;99.90;;;;;;5041013;28;20484;-89
2022/01/08 02:44:11;;;;;;;0.80;0.80;;;1.90;99.90;;;;;;5028881;28;20438;-90
2022/01/08 02:46:41;;;;;;;0.90;0.90;;;1.90;99.90;;;;;;5029191;28;20309;-90
2022/01/08 02:49:08;;;;;;;1.57;1.47;;;1.90;99.90;;;;;;5016770;28;20175;-91
2022/01/08 02:51:35;;;;;;;0.80;0.80;;;1.90;99.90;;;;;;5026715;28;20489;-90
2022/01/08 02:54:01;;;;;;;0.80;0.80;;;1.90;99.90;;;;;;5023977;28;20790;-90
2022/01/08 02:56:27;;;;;;;0.80;0.80;;;1.90;99.90;;;;;;5023573;28;20442;-90
2022/01/08 02:58:52;;;;;;;0.80;0.80;;;1.90;99.90;;;;;;5022656;28;20469;-90
2022/01/08 03:01:18;;;;;;;0.80;0.80;;;1.90;99.90;;;;;;5023962;28;20206;-89
2022/01/08 03:03:43;;;;;;;0.80;0.80;;;1.90;99.90;;;;;;5029993;28;20196;-90
2022/01/08 03:06:09;;;;;;;0.80;0.70;;;1.90;99.90;;;;;;5037453;28;20199;-90
2022/01/08 03:08:34;;;;;;;0.80;0.80;;;1.90;99.90;;;;;;5032571;28;20190;-90
2022/01/08 03:11:00;;;;;;;1.93;1.83;;;1.80;99.90;;;;;;5020701;28;20246;-89
2022/01/08 03:13:25;;;;;;;2.50;2.33;;;1.80;99.90;;;;;;5022248;28;20184;-90
2022/01/08 03:15:51;;;;;;;1.23;1.17;;;1.80;99.90;;;;;;5032367;28;20195;-89
2022/01/08 03:18:16;;;;;;;0.80;0.80;;;1.80;99.90;;;;;;5026967;28;20192;-90
2022/01/08 03:20:48;;;;;;;1.93;1.83;;;1.80;99.90;;;;;;5027065;28;20278;-90
2022/01/08 03:23:16;;;;;;;0.80;0.70;;;1.80;99.90;;;;;;5028743;28;20761;-90
2022/01/08 03:25:44;;;;;;;0.97;0.90;;;1.80;99.90;;;;;;5022669;28;20476;-89
2022/01/08 03:28:10;;;;;;;0.80;0.80;;;1.90;99.90;;;;;;5027448;28;21160;-90
2022/01/08 03:30:36;;;;;;;0.80;0.80;;;1.80;99.90;;;;;;5027504;28;20486;-90
2022/01/08 03:33:03;;;;;;;2.50;2.33;;;1.80;99.90;;;;;;5044701;28;20446;-89
2022/01/08 03:35:29;;;;;;;0.80;0.80;;;1.80;99.90;;;;;;5027021;28;20529;-89
2022/01/08 03:37:55;;;;;;;1.00;1.00;;;1.90;99.90;;;;;;5043503;28;20191;-90
2022/01/08 03:40:20;;;;;;;0.70;0.70;;;1.80;99.90;;;;;;5029766;28;20601;-89
2022/01/08 03:42:46;;;;;;;0.70;0.70;;;1.80;99.90;;;;;;5027871;28;20239;-90
2022/01/08 03:45:11;;;;;;;3.60;1.90;;;1.90;99.90;;;;;;5025257;28;20275;-89
2022/01/08 03:50:21;;;;;;;0.80;0.80;;;1.80;99.90;;;;;;5013497;28;20345;-88
2022/01/08 03:52:47;;;;;;;0.90;0.90;;;1.80;99.90;;;;;;5023517;28;21264;-90
2022/01/08 03:55:13;;;;;;;1.10;1.10;;;1.80;99.90;;;;;;5025986;28;20194;-90
2022/01/08 03:57:38;;;;;;;0.80;0.80;;;1.80;99.90;;;;;;5022520;28;20187;-89
2022/01/08 04:00:05;;;;;;;0.90;0.90;;;1.80;99.90;;;;;;5025157;28;20446;-89
2022/01/08 04:02:30;;;;;;;0.90;0.90;;;1.80;99.90;;;;;;5029256;28;20562;-89
2022/01/08 04:04:56;;;;;;;3.13;1.47;;;1.80;99.90;;;;;;5020905;28;20514;-89
2022/01/08 04:07:21;;;;;;;0.80;0.80;;;1.80;99.90;;;;;;5040398;28;20183;-89
2022/01/08 04:09:47;;;;;;;1.60;1.50;;;1.80;99.90;;;;;;5023144;28;20215;-90
2022/01/08 04:12:17;;;;;;;0.87;0.87;;;1.80;99.90;;;;;;5028775;28;20202;-90
2022/01/08 04:14:54;;;;;;;2.50;1.50;;;1.80;99.90;;;;;;5029690;28;20179;-89
2022/01/08 04:17:19;;;;;;;0.70;0.70;;;1.80;99.90;;;;;;5027696;28;20453;-90
2022/01/08 04:19:45;;;;;;;0.70;0.70;;;1.80;99.90;;;;;;5027914;28;20473;-90
2022/01/08 04:22:12;;;;;;;0.70;0.70;;;1.80;99.90;;;;;;5022837;28;20195;-90
2022/01/08 04:24:39;;;;;;;0.70;0.70;;;1.80;99.90;;;;;;5021779;28;20191;-89
2022/01/08 04:27:05;;;;;;;0.80;0.80;;;1.80;99.90;;;;;;5026557;28;20558;-88
2022/01/08 04:29:31;;;;;;;0.90;0.90;;;1.90;99.90;;;;;;5017698;28;20902;-89
2022/01/08 04:31:57;;;;;;;1.30;1.20;;;1.90;99.90;;;;;;5042304;28;20545;-90
2022/01/08 04:34:22;;;;;;;0.70;0.70;;;1.90;99.90;;;;;;5032274;28;20194;-90
2022/01/08 04:36:48;;;;;;;3.30;3.00;;;1.90;99.90;;;;;;5030628;28;20268;-89
2022/01/08 04:39:13;;;;;;;0.90;0.90;;;1.90;99.90;;;;;;5028617;28;20191;-89
2022/01/08 04:41:41;;;;;;;0.90;0.90;;;1.90;99.90;;;;;;5029632;28;20195;-89
2022/01/08 04:44:08;;;;;;;2.83;1.47;;;1.90;99.90;;;;;;5029268;28;20191;-90
2022/01/08 04:46:33;;;;;;;0.80;0.80;;;1.90;99.90;;;;;;5032057;28;20445;-89
2022/01/08 04:48:59;;;;;;;0.80;0.80;;;1.90;99.90;;;;;;5020006;28;20443;-88
2022/01/08 04:51:25;;;;;;;0.80;0.77;;;1.90;99.90;;;;;;5031244;28;20333;-90
2022/01/08 04:53:51;;;;;;;1.03;1.03;;;1.90;99.90;;;;;;5017383;28;20196;-90
2022/01/08 04:56:16;;;;;;;2.00;1.43;;;1.90;99.90;;;;;;5028137;28;20446;-89
2022/01/08 04:58:42;;;;;;;0.77;0.77;;;1.90;99.90;;;;;;5031919;28;20617;-90
2022/01/08 05:01:15;;;;;;;1.23;1.13;;;1.90;99.90;;;;;;5029866;28;20719;-90
2022/01/08 05:03:40;;;;;;;4.60;1.77;;;1.90;99.90;;;;;;5030502;28;20659;-90
2022/01/08 05:06:06;;;;;;;0.90;0.90;;;1.90;99.90;;;;;;5031658;28;20434;-89
2022/01/08 05:08:32;;;;;;;1.10;1.00;;;1.90;99.90;;;;;;5026319;28;20190;-89
2022/01/08 05:10:57;;;;;;;0.80;0.80;;;1.90;99.90;;;;;;5025592;28;20216;-89
2022/01/08 05:13:23;;;;;;;1.00;1.00;;;1.90;99.90;;;;;;5031138;28;20200;-90
2022/01/08 05:15:48;;;;;;;0.70;0.63;;;1.90;99.90;;;;;;5046395;28;20188;-89
2022/01/08 05:18:14;;;;;;;0.80;0.80;;;1.90;99.90;;;;;;5026841;28;20809;-90
2022/01/08 05:20:41;;;;;;;0.77;0.70;;;1.90;99.90;;;;;;5045251;28;20187;-90
2022/01/08 05:23:07;;;;;;;1.33;1.23;;;1.90;99.90;;;;;;5042565;28;20290;-89
2022/01/08 05:25:34;;;;;;;0.70;0.70;;;1.90;99.90;;;;;;5039015;28;20796;-89
2022/01/08 05:28:01;;;;;;;0.83;0.83;;;1.90;99.90;;;;;;5027279;28;20234;-89
2022/01/08 05:30:28;;;;;;;0.83;0.83;;;1.90;99.90;;;;;;5029813;28;20565;-89
2022/01/08 05:32:54;;;;;;;0.70;0.60;;;1.90;99.90;;;;;;5026932;28;20438;-89
2022/01/08 05:35:21;;;;;;;0.80;0.80;;;1.90;99.90;;;;;;5024544;28;20972;-89
2022/01/08 05:37:47;;;;;;;0.80;0.80;;;1.90;99.90;;;;;;5030722;28;20435;-89
2022/01/08 05:40:13;;;;;;;1.30;1.20;;;1.90;99.90;;;;;;5027394;28;20481;-90
2022/01/08 05:42:39;;;;;;;0.73;0.70;;;1.90;99.90;;;;;;5027564;28;20274;-90
2022/01/08 05:45:05;;;;;;;0.80;0.80;;;1.90;99.90;;;;;;5029425;28;20176;-89
2022/01/08 05:47:33;;;;;;;1.00;1.00;;;1.90;99.90;;;;;;5031116;28;20709;-90
2022/01/08 05:49:59;;;;;;;0.70;0.70;;;1.90;99.90;;;;;;5029546;28;20809;-90
2022/01/08 05:52:25;;;;;;;1.10;1.00;;;1.90;99.90;;;;;;5029974;28;20549;-90
2022/01/08 05:54:50;;;;;;;1.00;1.00;;;1.90;99.90;;;;;;5031161;28;20513;-89
2022/01/08 05:57:16;;;;;;;0.70;0.70;;;1.90;99.90;;;;;;5029827;28;20426;-90
2022/01/08 05:59:41;;;;;;;2.77;2.57;;;1.90;99.90;;;;;;5027099;28;20192;-90
2022/01/08 06:02:09;;;;;;;0.80;0.80;;;1.90;99.90;;;;;;5027684;28;20192;-90
2022/01/08 06:04:35;;;;;;;0.83;0.83;;;1.90;99.90;;;;;;5025888;28;20180;-88
2022/01/08 06:07:01;;;;;;;0.70;0.70;;;1.90;99.90;;;;;;5031066;28;20989;-90
2022/01/08 06:09:26;;;;;;;0.80;0.70;;;1.90;99.90;;;;;;5026022;28;20448;-90
2022/01/08 06:11:52;;;;;;;0.90;0.90;;;1.90;99.90;;;;;;5037806;28;20223;-90
2022/01/08 06:14:17;;;;;;;1.37;1.27;;;1.90;99.90;;;;;;5016691;28;20229;-90
2022/01/08 06:16:43;;;;;;;3.53;1.47;;;1.90;99.90;;;;;;5024378;28;20188;-89
2022/01/08 06:19:10;;;;;;;0.80;0.80;;;2.00;99.90;;;;;;5033228;28;20261;-90
2022/01/08 06:21:37;;;;;;;0.90;0.90;;;2.00;99.90;;;;;;5022248;28;20266;-91
2022/01/08 06:24:04;;;;;;;0.70;0.70;;;2.00;99.90;;;;;;5027604;28;20426;-90
2022/01/08 06:26:30;;;;;;;0.70;0.70;;;2.00;99.90;;;;;;5020050;28;21019;-90
2022/01/08 06:28:55;;;;;;;0.97;0.97;;;2.00;99.90;;;;;;5026633;28;20573;-89
2022/01/08 06:31:23;;;;;;;0.80;0.77;;;2.00;99.90;;;;;;5027794;28;20215;-89
2022/01/08 06:33:49;;;;;;;0.80;0.80;;;2.00;99.90;;;;;;5024484;28;20187;-90
2022/01/08 06:36:17;;;;;;;0.80;0.80;;;2.00;99.90;;;;;;5032802;28;20492;-90
2022/01/08 06:38:43;;;;;;;4.10;1.07;;;2.00;99.90;;;;;;5030033;28;20426;-89
2022/01/08 06:41:09;;;;;;;0.80;0.80;;;2.00;99.90;;;;;;5030298;28;20774;-89
2022/01/08 06:43:34;;;;;;;1.53;1.43;;;2.00;99.90;;;;;;5030567;28;20965;-90
2022/01/08 06:46:00;;;;;;;0.80;0.80;;;2.00;99.90;;;;;;5030082;28;20183;-89
2022/01/08 06:48:25;;;;;;;0.70;0.70;;;2.00;99.90;;;;;;5034446;28;20186;-89
2022/01/08 06:50:51;;;;;;;0.70;0.70;;;2.00;99.90;;;;;;5036266;28;20220;-90
2022/01/08 06:53:16;;;;;;;0.73;0.70;;;2.00;99.90;;;;;;5029987;28;20278;-90
2022/01/08 06:55:42;;;;;;;0.90;0.90;;;2.00;99.90;;;;;;5027505;28;20180;-90
2022/01/08 06:58:07;;;;;;;2.33;1.30;;;2.00;99.90;;;;;;5029170;28;20568;-90
2022/01/08 07:00:33;;;;;;;1.33;1.23;;;2.10;99.90;;;;;;5030412;28;20184;-89
2022/01/08 07:02:59;;;;;;;1.00;1.00;;;2.00;99.90;;;;;;5032904;28;20273;-89
2022/01/08 07:05:25;;;;;;;0.80;0.77;;;2.00;99.90;;;;;;5046063;28;20176;-90
2022/01/08 07:07:51;;;;;;;0.70;0.70;;;2.10;99.90;;;;;;5032699;28;20433;-90
2022/01/08 07:10:16;;;;;;;1.30;1.20;;;2.10;99.90;;;;;;5032466;28;20215;-90
2022/01/08 07:12:42;;;;;;;1.00;1.00;;;2.10;99.90;;;;;;5027967;28;20211;-90
2022/01/08 07:15:08;;;;;;;1.60;1.50;;;2.10;99.90;;;;;;5028167;28;20262;-91
2022/01/08 07:17:33;;;;;;;1.17;1.07;;;2.10;99.90;;;;;;5030370;28;20191;-90
2022/01/08 07:19:59;;;;;;;0.73;0.73;;;2.10;99.90;;;;;;5031702;28;20438;-90
2022/01/08 07:22:24;;;;;;;0.90;0.90;;;2.00;99.90;;;;;;5035836;28;20189;-90
2022/01/08 07:24:50;;;;;;;0.73;0.70;;;2.10;99.90;;;;;;5038999;28;20730;-90
2022/01/08 07:27:15;;;;;;;0.87;0.87;;;2.00;99.90;;;;;;5018761;28;20268;-91
2022/01/08 07:29:41;;;;;;;0.70;0.70;;;2.00;99.90;;;;;;5044767;28;20690;-91
2022/01/08 07:32:06;;;;;;;0.80;0.70;;;2.00;99.90;;;;;;5032768;28;20566;-91
2022/01/08 07:34:32;;;;;;;0.70;0.70;;;2.00;99.90;;;;;;5043600;28;20647;-91
2022/01/08 07:36:58;;;;;;;0.87;0.87;;;2.00;99.90;;;;;;5036635;28;20192;-91
2022/01/08 07:39:23;;;;;;;1.90;1.80;;;2.00;99.90;;;;;;5048833;28;20236;-91
2022/01/08 07:41:49;;;;;;;0.80;0.80;;;2.00;99.90;;;;;;5036987;28;20218;-89
2022/01/08 07:44:14;;;;;;;2.30;2.10;;;2.10;99.90;;;;;;5033490;28;20257;-90
2022/01/08 07:46:40;;;;;;;0.70;0.60;;;2.10;99.90;;;;;;5031349;28;20192;-90
2022/01/08 07:49:05;;;;;;;2.53;1.97;;;2.20;99.90;;;;;;5040097;28;20639;-90
2022/01/08 07:51:31;;;;;;;0.90;0.90;;;2.20;99.90;;;;;;5034746;28;20215;-88
2022/01/08 07:53:56;;;;;;;0.80;0.80;;;2.20;99.90;;;;;;5027061;28;20194;-88
2022/01/08 07:56:22;;;;;;;0.70;0.63;;;2.20;99.90;;;;;;5037125;28;20184;-91
2022/01/08 07:58:47;;;;;;;1.10;1.10;;;2.30;99.90;;;;;;5031390;28;20194;-88
2022/01/08 08:01:13;;;;;;;0.80;0.70;;;2.20;99.90;;;;;;5027685;28;20179;-89
2022/01/08 08:03:38;;;;;;;10.10;2.13;;;2.20;99.90;;;;;;5032759;28;20579;-89
2022/01/08 08:06:10;;;;;;;0.80;0.80;;;2.20;99.90;;;;;;5030467;28;20801;-89
2022/01/08 08:08:35;;;;;;;1.63;1.53;;;2.20;99.90;;;;;;5026555;28;20554;-89
2022/01/08 08:11:01;;;;;;;0.80;0.70;;;2.20;99.90;;;;;;5021801;28;20485;-90
2022/01/08 08:13:26;;;;;;;0.70;0.70;;;2.20;99.90;;;;;;5032773;28;20190;-89
2022/01/08 08:15:52;;;;;;;1.43;1.33;;;2.20;99.90;;;;;;5033036;28;20603;-90
2022/01/08 08:18:17;;;;;;;2.87;2.77;;;2.20;99.90;;;;;;5031965;28;20187;-89
2022/01/08 08:20:43;;;;;;;0.80;0.80;;;2.20;99.90;;;;;;5033652;28;20555;-88
2022/01/08 08:23:09;;;;;;;0.80;0.80;;;2.20;99.90;;;;;;5030761;28;20271;-88
2022/01/08 08:25:34;;;;;;;0.77;0.70;;;2.20;99.90;;;;;;5029983;28;20187;-89
2022/01/08 08:28:00;;;;;;;0.80;0.80;;;2.20;99.90;;;;;;5028985;28;20447;-89
2022/01/08 08:30:26;;;;;;;0.80;0.80;;;2.20;99.90;;;;;;5026415;28;20292;-89
2022/01/08 08:32:52;;;;;;;0.80;0.80;;;2.20;99.90;;;;;;5023620;28;20239;-90
2022/01/08 08:35:18;;;;;;;0.80;0.80;;;2.20;99.90;;;;;;5046129;28;20969;-90
2022/01/08 08:37:43;;;;;;;0.80;0.80;;;2.30;99.90;;;;;;5032981;28;20199;-89
2022/01/08 08:40:10;;;;;;;0.80;0.73;;;2.30;99.90;;;;;;5030083;28;20218;-89
2022/01/08 08:42:36;;;;;;;0.80;0.80;;;2.30;99.90;;;;;;5033042;28;20229;-90
2022/01/08 08:45:04;;;;;;;0.80;0.80;;;2.30;99.90;;;;;;5029095;28;20458;-89
2022/01/08 08:47:29;;;;;;;0.80;0.80;;;2.20;99.90;;;;;;5023500;28;20438;-90
2022/01/08 08:49:55;;;;;;;0.80;0.80;;;2.20;99.90;;;;;;5030980;28;20508;-89
2022/01/08 08:52:21;;;;;;;0.70;0.70;;;2.30;99.90;;;;;;5026808;28;20184;-90
2022/01/08 08:54:47;;;;;;;0.90;0.90;;;2.30;99.90;;;;;;5031345;28;20187;-90
2022/01/08 08:57:13;;;;;;;1.30;1.20;;;2.30;99.90;;;;;;5031267;28;20473;-90
2022/01/08 08:59:38;;;;;;;0.80;0.70;;;2.30;99.90;;;;;;5032162;28;20183;-91
2022/01/08 09:02:04;;;;;;;0.77;0.70;;;2.40;99.90;;;;;;5026613;28;20450;-90
2022/01/08 09:04:29;;;;;;;0.80;0.73;;;2.30;99.90;;;;;;5033258;28;20188;-89
2022/01/08 09:06:58;;;;;;;0.70;0.60;;;2.30;99.90;;;;;;5025634;28;20182;-91
2022/01/08 09:09:24;;;;;;;0.80;0.80;;;2.30;99.90;;;;;;5030257;28;20191;-89
2022/01/08 09:11:50;;;;;;;0.70;0.70;;;2.30;99.90;;;;;;5032999;28;20481;-90
2022/01/08 09:14:16;;;;;;;0.80;0.80;;;2.30;99.90;;;;;;5028647;28;20438;-91
2022/01/08 09:16:48;;;;;;;1.10;1.07;;;2.30;99.90;;;;;;5025037;28;20668;-90
2022/01/08 09:19:14;;;;;;;0.80;0.80;;;2.30;99.90;;;;;;5018675;28;20185;-89
2022/01/08 09:21:40;;;;;;;0.80;0.80;;;2.30;99.90;;;;;;5042228;28;20450;-90
2022/01/08 09:24:05;;;;;;;1.63;1.53;;;2.30;99.90;;;;;;5046256;28;20529;-90
2022/01/08 09:26:31;;;;;;;2.30;1.10;;;2.30;99.90;;;;;;5029171;28;20212;-89
2022/01/08 09:28:56;;;;;;;1.80;1.60;;;2.30;99.90;;;;;;5025592;28;20235;-90
2022/01/08 09:31:23;;;;;;;0.80;0.80;;;2.40;99.90;;;;;;5028739;28;20246;-90
2022/01/08 09:33:49;;;;;;;0.80;0.80;;;2.40;99.90;;;;;;5029144;28;20195;-88
2022/01/08 09:36:14;;;;;;;3.27;3.07;;;2.40;99.90;;;;;;5026513;28;20953;-90
2022/01/08 09:38:40;;;;;;;0.70;0.70;;;2.40;99.90;;;;;;5019258;28;20192;-89
2022/01/08 09:41:06;;;;;;;0.80;0.80;;;2.50;99.90;;;;;;5031637;28;20648;-90
2022/01/08 09:43:32;;;;;;;0.80;0.80;;;2.40;99.90;;;;;;5019966;28;20242;-89
2022/01/08 09:45:58;;;;;;;2.50;1.47;;;2.40;99.90;;;;;;5028510;28;20192;-91
2022/01/08 09:48:23;;;;;;;0.70;0.70;;;2.50;99.90;;;;;;5019875;28;20598;-90
2022/01/08 09:50:49;;;;;;;1.00;1.00;;;2.60;99.90;;;;;;5017826;28;20231;-91
2022/01/08 09:53:14;;;;;;;1.10;1.00;;;2.60;99.90;;;;;;5023645;28;20196;-91
2022/01/08 09:55:40;;;;;;;0.70;0.70;;;2.70;99.90;;;;;;5025591;28;20593;-91
2022/01/08 09:58:06;;;;;;;0.70;0.60;;;2.70;99.90;;;;;;5022441;28;20191;-91
2022/01/08 10:00:34;;;;;;;1.70;1.60;;;2.70;99.90;;;;;;5020047;28;20329;-91
2022/01/08 10:03:22;;;;;;;0.70;0.63;;;2.80;99.90;;;;;;5023221;28;20533;-90
2022/01/08 10:05:50;;;;;;;0.80;0.70;;;;;;;;;;5024805;28;20446;-90
2022/01/08 10:08:16;;;;;;;1.30;1.00;;;;;;;;;;5052997;28;20476;-90
2022/01/08 10:10:54;;;;;;;0.80;0.70;;;;;;;;;;5032076;28;20485;-91
2022/01/08 10:13:28;;;;;;;0.70;0.70;;;;;;;;;;5018206;28;20446;-90
2022/01/08 10:18:41;;;;;;;0.80;0.70;;;;;;;;;;5032493;28;20455;-90
2022/01/08 10:21:23;;;;;;;1.63;1.53;;;;;;;;;;5020456;28;20500;-89
2022/01/08 10:23:53;;;;;;;0.80;0.77;;;;;;;;;;5052743;28;20496;-89
2022/01/08 10:26:20;;;;;;;0.80;0.70;;;;;;;;;;5035615;28;20443;-89
2022/01/08 10:28:46;;;;;;;0.80;0.70;;;;;;;;;;5021225;28;20434;-90
2022/01/08 10:31:18;;;;;;;0.80;0.70;;;;;;;;;;5052012;28;20857;-89
2022/01/08 10:33:48;;;;;;;0.70;0.67;;;;;;;;;;5017333;28;20445;-89
2022/01/08 10:36:14;;;;;;;0.80;0.70;;;;;;;;;;5042361;28;20530;-90
2022/01/08 10:38:40;;;;;;;3.07;2.07;;;;;;;;;;5037138;28;20524;-90
2022/01/08 10:41:12;;;;;;;0.80;0.70;;;;;;;;;;5062309;28;20875;-89
2022/01/08 10:43:39;;;;;;;1.53;1.43;;;;;;;;;;5030018;28;20918;-89
2022/01/08 10:46:12;;;;;;;0.90;0.80;;;;;;;;;;5061757;28;20434;-90
2022/01/08 10:48:38;;;;;;;0.90;0.90;;;;;;;;;;5045379;28;20495;-89
2022/01/08 10:51:16;;;;;;;0.90;0.90;;;;;;;;;;5060593;28;20490;-91
2022/01/08 10:53:52;;;;;;;5.70;2.70;;;;;;;;;;5056918;28;20438;-89
2022/01/08 10:56:22;;;;;;;1.67;1.23;;;;;;;;;;5041313;28;20525;-88
2022/01/08 10:58:52;;;;;;;1.03;0.93;;;;;;;;;;5029516;28;20493;-91
2022/01/08 11:01:37;;;;;;;0.87;0.87;;;;;;;;;;5030198;28;20454;-90
2022/01/08 11:04:03;;;;;;;0.80;0.70;;;;;;;;;;5061386;28;20460;-89
2022/01/08 11:06:29;;;;;;;0.77;0.70;;;;;;;;;;5060456;28;20446;-89
2022/01/08 11:09:02;;;;;;;0.73;0.70;;;;;;;;;;5027015;28;20430;-90
2022/01/08 11:11:31;;;;;;;0.80;0.80;;;;;;;;;;5025437;28;20478;-90
2022/01/08 11:14:47;;;;;;;0.80;0.70;;;3.60;99.90;;;;;;5061362;28;20513;-90
2022/01/08 11:16:53;;;;;;;0.80;0.80;;;3.90;99.90;;;;;;5025826;28;20554;-90
2022/01/08 11:19:20;;;;;;;1.20;1.10;;;3.70;99.90;;;;;;5020224;28;20451;-89
2022/01/08 11:21:48;;;;;;;0.80;0.70;;;3.80;99.90;;;;;;5040693;28;20442;-90
2022/01/08 11:24:17;;;;;;;0.80;0.70;;;3.80;99.90;;;;;;5025928;28;20984;-90
2022/01/08 11:26:45;;;;;;;0.80;0.70;;;3.70;99.90;;;;;;5022678;28;20450;-90
2022/01/08 11:29:15;;;;;;;4.40;1.23;;;3.60;99.90;;;;;;5021397;28;20482;-90
2022/01/08 11:31:42;;;;;;;0.80;0.70;;;3.70;99.90;;;;;;5014980;28;20485;-89
2022/01/08 11:34:11;;;;;;;0.80;0.80;;;3.80;99.90;;;;;;5039830;28;20452;-89
2022/01/08 11:36:37;;;;;;;0.80;0.77;;;3.70;99.90;;;;;;5021379;28;20829;-88
2022/01/08 11:39:03;;;;;;;3.53;3.23;;;3.80;99.90;;;;;;5016284;28;20450;-90
2022/01/08 11:41:30;;;;;;;0.80;0.80;;;4.00;99.90;;;;;;5021611;28;20481;-90
2022/01/08 11:43:56;;;;;;;0.80;0.80;;;4.20;99.90;;;;;;5040256;28;20568;-90
2022/01/08 11:46:22;;;;;;;0.80;0.80;;;4.30;99.90;;;;;;5024324;28;20472;-90
2022/01/08 11:48:50;;;;;;;0.80;0.77;;;4.30;99.90;;;;;;5028980;28;20191;-91
2022/01/08 11:51:17;;;;;;;3.13;1.37;;;4.60;99.90;;;;;;5027419;28;20547;-90
2022/01/08 11:53:51;;;;;;;0.80;0.70;;;4.50;99.90;;;;;;5028023;28;20442;-89
2022/01/08 11:56:26;;;;;;;2.60;1.43;;;4.60;99.90;;;;;;5027983;28;20964;-91
2022/01/08 11:59:09;;;;;;;2.27;1.87;;;4.50;99.90;;;;;;5038033;28;21587;-89
2022/01/08 12:01:36;;;;;;;0.80;0.70;;;4.50;99.90;;;;;;5021274;28;20438;-90
2022/01/08 12:04:02;;;;;;;0.87;0.80;;;4.40;99.90;;;;;;5023043;28;20435;-92
2022/01/08 12:06:29;;;;;;;0.90;0.83;;;4.50;99.90;;;;;;5043404;28;20557;-90
2022/01/08 12:11:44;;;;;;;0.80;0.70;;;4.90;99.90;;;;;;5026333;28;20482;-92
2022/01/08 12:14:19;;;;;;;0.80;0.80;;;5.00;99.90;;;;;;5026524;28;20449;-91
2022/01/08 12:16:47;;;;;;;0.80;0.70;;;4.90;99.90;;;;;;5023866;28;20191;-88
2022/01/08 12:19:33;;;;;;;1.50;1.40;;;4.90;99.90;;;;;;5016273;28;20453;-88
2022/01/08 12:22:20;;;;;;;1.53;1.43;;;5.00;99.90;;;;;;5014733;28;20516;-87
2022/01/08 12:24:51;;;;;;;0.90;0.80;;;4.80;99.90;;;;;;5016510;28;20507;-87
2022/01/08 12:27:35;;;;;;;2.20;2.00;;;4.70;99.90;;;;;;5030056;28;20442;-90
2022/01/08 12:30:15;;;;;;;0.80;0.70;;;4.70;99.90;;;;;;5029971;28;20473;-91
2022/01/08 12:32:48;;;;;;;0.80;0.60;;;4.80;99.90;;;;;;5019415;28;20469;-91
2022/01/08 12:35:20;;;;;;;1.43;1.33;;;4.70;99.90;;;;;;5032518;28;20446;-90
2022/01/08 12:37:52;;;;;;;1.20;1.10;;;4.50;99.90;;;;;;5031002;28;20458;-92
2022/01/08 12:40:49;;;;;;;2.03;1.93;;;4.30;99.90;;;;;;5029615;28;20485;-90
2022/01/08 12:43:23;;;;;;;2.50;1.43;;;4.20;99.90;;;;;;5044073;28;20961;-91
2022/01/08 12:45:51;;;;;;;0.83;0.83;;;4.20;99.90;;;;;;5027797;28;20423;-91
2022/01/08 12:48:20;;;;;;;0.90;0.80;;;;;;;;;;5020971;28;20433;-91
2022/01/08 12:50:46;;;;;;;0.80;0.70;;;;;;;;;;5065002;28;20489;-91
2022/01/08 12:53:13;;;;;;;0.80;0.80;;;;;;;;;;5036227;28;20447;-90
2022/01/08 12:55:39;;;;;;;1.00;0.90;;;;;;;;;;5029191;28;20448;-89
2022/01/08 12:58:18;;;;;;;0.80;0.80;;;;;;;;;;5066376;28;21314;-89
2022/01/08 13:01:03;;;;;;;1.10;1.00;;;;;;;;;;5032701;28;20452;-91
2022/01/08 13:03:30;;;;;;;0.90;0.80;;;;;;;;;;5060229;28;20449;-89
2022/01/08 13:06:00;;;;;;;1.43;1.33;;;;;;;;;;5063724;28;20980;-89
2022/01/08 13:08:27;;;;;;;1.77;1.07;;;;;;;;;;5055828;28;20908;-90
2022/01/08 13:10:57;;;;;;;0.80;0.80;;;4.70;99.90;;;;;;5050923;28;20490;-88
2022/01/08 13:13:24;;;;;;;0.83;0.70;;;;;;;;;;5031083;28;20525;-88
2022/01/08 13:15:50;;;;;;;1.57;1.47;;;;;;;;;;5058127;28;20454;-89
2022/01/08 13:18:24;;;;;;;0.80;0.63;;;;;;;;;;5032810;28;20446;-87
2022/01/08 13:21:04;;;;;;;0.80;0.70;;;;;;;;;;5046313;28;20446;-89
2022/01/08 13:23:30;;;;;;;1.00;0.90;;;;;;;;;;5026468;28;20531;-89
2022/01/08 13:25:57;;;;;;;0.90;0.80;;;;;;;;;;5059380;28;20446;-87
2022/01/08 13:28:24;;;;;;;0.80;0.60;;;4.80;99.90;;;;;;5029210;28;20516;-89
2022/01/08 13:30:50;;;;;;;0.90;0.80;;;;;;;;;;5029265;28;20599;-89
2022/01/08 13:33:23;;;;;;;0.90;0.70;;;;;;;;;;5044244;28;20600;-88
2022/01/08 13:35:58;;;;;;;1.00;0.90;;;5.10;99.90;;;;;;5058731;28;20442;-89
2022/01/08 13:38:34;;;;;;;0.80;0.77;;;5.00;99.90;;;;;;5028766;28;20429;-88